createdAt,value
2018-05-12T00:00:06.949Z,71.10
2018-05-12T00:02:34.416Z,71.20
2018-05-12T00:05:01.873Z,71.20
2018-05-12T00:07:30.134Z,71.00
2018-05-12T00:09:57.545Z,71.00
2018-05-12T00:12:25.005Z,70.20
2018-05-12T00:14:52.547Z,69.50
2018-05-12T00:17:20.693Z,69.40
2018-05-12T00:19:48.140Z,69.30
2018-05-12T00:22:15.603Z,69.70
2018-05-12T00:24:43.066Z,69.70
2018-05-12T00:27:10.525Z,69.90
2018-05-12T00:29:38.740Z,70.50
2018-05-12T00:32:06.208Z,70.50
2018-05-12T00:34:33.661Z,70.60
2018-05-12T00:37:01.125Z,70.40
2018-05-12T00:39:28.577Z,70.40
2018-05-12T00:41:56.849Z,70.60
2018-05-12T00:44:24.300Z,70.60
2018-05-12T00:46:51.760Z,70.60
2018-05-12T00:49:19.220Z,70.70
2018-05-12T00:51:46.676Z,70.90
2018-05-12T00:54:14.137Z,71.20
2018-05-12T00:56:41.592Z,70.80
2018-05-12T00:59:09.052Z,70.70
2018-05-12T01:01:37.267Z,71.20
2018-05-12T01:04:04.736Z,71.20
2018-05-12T01:06:32.245Z,71.10
2018-05-12T01:08:59.704Z,71.30
2018-05-12T01:11:27.161Z,71.30
2018-05-12T01:13:54.621Z,71.60
2018-05-12T01:16:22.096Z,71.90
2018-05-12T01:18:49.553Z,72.00
2018-05-12T01:21:17.049Z,71.60
2018-05-12T01:23:44.463Z,71.70
2018-05-12T01:26:12.683Z,71.40
2018-05-12T01:28:40.144Z,71.30
2018-05-12T01:31:07.595Z,70.50
2018-05-12T01:33:35.073Z,70.30
2018-05-12T01:36:02.520Z,70.00
2018-05-12T01:38:30.973Z,70.20
2018-05-12T01:40:58.563Z,70.20
2018-05-12T01:43:26.013Z,69.90
2018-05-12T01:45:53.492Z,69.80
2018-05-12T01:48:20.940Z,69.90
2018-05-12T01:50:48.401Z,70.50
2018-05-12T01:53:15.866Z,70.80
2018-05-12T01:55:43.332Z,70.70
2018-05-12T01:58:10.776Z,70.70
2018-05-12T02:00:38.241Z,70.40
2018-05-12T02:03:06.469Z,70.40
2018-05-12T02:05:33.921Z,70.40
2018-05-12T02:08:01.436Z,70.70
2018-05-12T02:10:28.903Z,71.20
2018-05-12T02:12:56.356Z,70.40
2018-05-12T02:15:23.816Z,70.80
2018-05-12T02:17:51.384Z,71.50
2018-05-12T02:20:18.845Z,71.70
2018-05-12T02:22:46.296Z,71.90
2018-05-12T02:25:13.757Z,72.20
2018-05-12T02:27:41.220Z,72.80
2018-05-12T02:30:09.460Z,73.50
2018-05-12T02:32:36.916Z,73.50
2018-05-12T02:35:04.364Z,73.50
2018-05-12T02:37:31.831Z,73.40
2018-05-12T02:39:59.291Z,73.20
2018-05-12T02:42:26.749Z,73.50
2018-05-12T02:44:54.979Z,73.60
2018-05-12T02:47:22.440Z,73.60
2018-05-12T02:49:49.880Z,73.70
2018-05-12T02:52:17.345Z,73.50
2018-05-12T02:54:45.560Z,73.10
2018-05-12T02:57:13.029Z,73.10
2018-05-12T02:59:40.483Z,73.00
2018-05-12T03:02:07.935Z,73.20
2018-05-12T03:04:36.157Z,72.60
2018-05-12T03:07:03.625Z,72.60
2018-05-12T03:09:31.086Z,72.50
2018-05-12T03:11:58.552Z,72.20
2018-05-12T03:14:26.037Z,72.20
2018-05-12T03:16:53.460Z,72.60
2018-05-12T03:19:21.681Z,73.30
2018-05-12T03:21:49.138Z,73.30
2018-05-12T03:24:16.601Z,73.30
2018-05-12T03:26:44.046Z,73.30
2018-05-12T03:29:11.491Z,73.40
2018-05-12T03:31:38.960Z,73.60
2018-05-12T03:34:06.413Z,73.70
2018-05-12T03:36:33.866Z,73.70
2018-05-12T03:39:01.320Z,73.00
2018-05-12T03:41:28.777Z,73.30
2018-05-12T03:43:56.244Z,73.50
2018-05-12T03:46:24.451Z,73.40
2018-05-12T03:48:51.917Z,73.40
2018-05-12T03:51:19.359Z,73.40
2018-05-12T03:53:47.584Z,73.60
2018-05-12T03:56:15.032Z,73.50
2018-05-12T03:58:42.516Z,73.50
2018-05-12T04:01:09.969Z,74.10
2018-05-12T04:03:37.440Z,74.30
2018-05-12T04:06:16.965Z,74.30
2018-05-12T04:08:57.943Z,74.30
2018-05-12T04:11:37.356Z,74.00
2018-05-12T04:14:04.815Z,73.50
2018-05-12T04:16:32.263Z,73.60
2018-05-12T04:18:59.738Z,73.60
2018-05-12T04:21:27.197Z,73.80
2018-05-12T04:23:55.415Z,73.70
2018-05-12T04:26:22.937Z,73.70
2018-05-12T04:28:50.380Z,73.20
2018-05-12T04:31:17.843Z,72.80
2018-05-12T04:33:45.387Z,72.60
2018-05-12T04:36:12.847Z,72.80
2018-05-12T04:38:40.294Z,73.00
2018-05-12T04:41:08.529Z,72.30
2018-05-12T04:43:35.979Z,72.30
2018-05-12T04:46:03.431Z,72.00
2018-05-12T04:48:30.892Z,72.30
2018-05-12T04:50:59.116Z,72.80
2018-05-12T04:53:26.570Z,72.80
2018-05-12T04:55:54.029Z,73.10
2018-05-12T04:58:21.471Z,73.70
2018-05-12T05:00:49.696Z,73.90
2018-05-12T05:03:17.154Z,73.90
2018-05-12T05:05:44.631Z,73.30
2018-05-12T05:08:12.116Z,74.00
2018-05-12T05:10:40.297Z,73.90
2018-05-12T05:13:07.748Z,73.90
2018-05-12T05:15:35.204Z,74.00
2018-05-12T05:18:03.429Z,74.40
2018-05-12T05:20:30.887Z,74.40
2018-05-12T05:22:58.352Z,74.40
2018-05-12T05:25:25.789Z,74.10
2018-05-12T05:27:54.039Z,74.90
2018-05-12T05:30:21.508Z,74.90
2018-05-12T05:32:48.975Z,74.60
2018-05-12T05:35:16.550Z,75.00
2018-05-12T05:37:43.988Z,75.00
2018-05-12T05:40:11.432Z,75.10
2018-05-12T05:42:38.897Z,75.20
2018-05-12T05:45:07.113Z,74.40
2018-05-12T05:47:34.572Z,74.40
2018-05-12T05:50:02.021Z,74.50
2018-05-12T05:52:29.492Z,74.60
2018-05-12T05:54:57.707Z,74.20
2018-05-12T05:57:25.176Z,74.20
2018-05-12T05:59:52.625Z,74.60
2018-05-12T06:02:20.084Z,74.20
2018-05-12T06:04:48.309Z,74.10
2018-05-12T06:07:15.878Z,74.10
2018-05-12T06:09:43.229Z,74.70
2018-05-12T06:12:10.694Z,74.60
2018-05-12T06:14:38.153Z,74.60
2018-05-12T06:17:05.642Z,73.90
2018-05-12T06:19:33.109Z,73.40
2018-05-12T06:22:00.560Z,73.40
2018-05-12T06:24:28.018Z,73.90
2018-05-12T06:26:56.235Z,74.30
2018-05-12T06:29:23.705Z,74.20
2018-05-12T06:31:51.155Z,74.50
2018-05-12T06:34:18.621Z,74.40
2018-05-12T06:36:46.064Z,73.50
2018-05-12T06:39:13.528Z,73.10
2018-05-12T06:41:40.980Z,73.50
2018-05-12T06:44:08.524Z,73.40
2018-05-12T06:46:35.968Z,73.60
2018-05-12T06:49:03.437Z,72.80
2018-05-12T06:51:30.893Z,72.90
2018-05-12T06:53:59.132Z,72.80
2018-05-12T06:56:26.584Z,72.70
2018-05-12T06:58:54.046Z,72.70
2018-05-12T07:01:21.537Z,72.00
2018-05-12T07:03:48.961Z,72.30
2018-05-12T07:06:17.191Z,72.30
2018-05-12T07:08:44.640Z,72.20
2018-05-12T07:11:12.106Z,71.80
2018-05-12T07:13:39.556Z,72.20
2018-05-12T07:16:07.786Z,72.10
2018-05-12T07:18:35.223Z,72.00
2018-05-12T07:21:02.689Z,71.60
2018-05-12T07:23:30.133Z,71.80
2018-05-12T07:25:58.359Z,72.10
2018-05-12T07:28:25.807Z,72.00
2018-05-12T07:30:53.272Z,72.00
2018-05-12T07:33:20.735Z,71.10
2018-05-12T07:35:48.969Z,68.60
2018-05-12T07:38:16.421Z,68.50
2018-05-12T07:40:43.880Z,69.10
2018-05-12T07:43:11.340Z,69.50
2018-05-12T07:45:39.562Z,68.80
2018-05-12T07:48:07.007Z,68.80
2018-05-12T07:50:34.465Z,68.00
2018-05-12T07:53:01.922Z,67.70
2018-05-12T07:55:30.144Z,65.40
2018-05-12T07:57:57.594Z,65.40
2018-05-12T08:00:25.048Z,66.00
2018-05-12T08:02:53.280Z,65.60
2018-05-12T08:05:20.735Z,65.60
2018-05-12T08:07:48.196Z,64.20
2018-05-12T08:10:15.678Z,63.30
2018-05-12T08:12:43.143Z,64.50
2018-05-12T08:15:10.581Z,63.20
2018-05-12T08:17:38.796Z,63.80
2018-05-12T08:20:06.250Z,63.80
2018-05-12T08:22:33.706Z,63.50
2018-05-12T08:25:01.923Z,63.00
2018-05-12T08:27:29.388Z,62.80
2018-05-12T08:29:56.856Z,64.50
2018-05-12T08:32:24.343Z,63.00
2018-05-12T08:34:51.784Z,61.60
2018-05-12T08:37:19.261Z,62.10
2018-05-12T08:39:46.721Z,62.80
2018-05-12T08:42:14.189Z,63.30
2018-05-12T08:44:41.650Z,63.50
2018-05-12T08:47:09.104Z,61.10
2018-05-12T08:49:37.327Z,59.30
2018-05-12T08:52:04.779Z,59.30
2018-05-12T08:54:32.232Z,60.80
2018-05-12T08:57:00.464Z,61.70
2018-05-12T08:59:27.927Z,61.50
2018-05-12T09:01:55.385Z,61.10
2018-05-12T09:04:22.827Z,59.90
2018-05-12T09:06:51.057Z,59.10
2018-05-12T09:09:18.504Z,59.00
2018-05-12T09:11:45.969Z,57.00
2018-05-12T09:14:13.429Z,57.30
2018-05-12T09:16:41.660Z,57.70
2018-05-12T09:19:09.113Z,57.60
2018-05-12T09:21:36.574Z,58.70
2018-05-12T09:24:04.021Z,57.60
2018-05-12T09:26:31.484Z,56.70
2018-05-12T09:28:59.705Z,56.10
2018-05-12T09:31:27.168Z,56.10
2018-05-12T09:33:54.624Z,56.00
2018-05-12T09:36:22.091Z,55.50
2018-05-12T09:38:50.291Z,55.00
2018-05-12T09:41:17.776Z,55.00
2018-05-12T09:43:45.233Z,53.40
2018-05-12T09:46:12.696Z,53.80
2018-05-12T09:48:40.144Z,54.40
2018-05-12T09:51:07.604Z,53.90
2018-05-12T09:53:35.825Z,51.20
2018-05-12T09:56:03.301Z,51.10
2018-05-12T09:58:30.748Z,50.30
2018-05-12T10:00:58.213Z,48.50
2018-05-12T10:03:25.682Z,47.70
2018-05-12T10:05:53.891Z,46.20
2018-05-12T10:08:21.344Z,46.20
2018-05-12T10:10:48.804Z,46.30
2018-05-12T10:13:16.243Z,47.00
2018-05-12T10:15:44.524Z,44.60
2018-05-12T10:18:11.973Z,44.30
2018-05-12T10:20:39.435Z,45.10
2018-05-12T10:23:06.888Z,46.00
2018-05-12T10:25:34.358Z,46.40
2018-05-12T10:28:01.799Z,45.20
2018-05-12T10:30:29.271Z,46.50
2018-05-12T10:32:56.725Z,46.20
2018-05-12T10:35:25.048Z,46.50
2018-05-12T10:37:52.492Z,46.40
2018-05-12T10:40:20.709Z,44.50
2018-05-12T10:42:48.177Z,44.40
2018-05-12T10:45:15.656Z,45.40
2018-05-12T10:47:43.117Z,44.80
2018-05-12T10:50:11.304Z,47.70
2018-05-12T10:52:38.774Z,47.70
2018-05-12T10:55:06.218Z,44.60
2018-05-12T10:57:33.679Z,46.80
2018-05-12T11:00:01.900Z,43.50
2018-05-12T11:02:29.351Z,43.40
2018-05-12T11:04:56.801Z,44.60
2018-05-12T11:07:25.024Z,45.90
2018-05-12T11:09:52.468Z,45.80
2018-05-12T11:12:19.939Z,46.20
2018-05-12T11:14:47.383Z,44.70
2018-05-12T11:17:15.607Z,42.60
2018-05-12T11:19:43.064Z,42.70
2018-05-12T11:22:10.530Z,46.00
2018-05-12T11:24:38.122Z,45.10
2018-05-12T11:27:05.576Z,43.60
2018-05-12T11:29:33.019Z,47.00
2018-05-12T11:32:00.491Z,45.90
2018-05-12T11:34:28.704Z,46.00
2018-05-12T11:36:56.177Z,46.00
2018-05-12T11:39:23.619Z,48.30
2018-05-12T11:41:51.955Z,49.60
2018-05-12T11:44:19.401Z,49.60
2018-05-12T11:46:46.860Z,49.80
2018-05-12T11:49:14.311Z,49.80
2018-05-12T11:51:42.549Z,52.20
2018-05-12T11:54:10.006Z,52.20
2018-05-12T11:56:37.452Z,52.70
2018-05-12T11:59:04.899Z,50.00
2018-05-12T12:01:32.358Z,53.00
2018-05-12T12:03:59.845Z,53.00
2018-05-12T12:06:28.064Z,52.30
2018-05-12T12:08:55.508Z,52.20
2018-05-12T12:11:22.965Z,51.10
2018-05-12T12:13:51.175Z,52.60
2018-05-12T12:16:18.661Z,52.50
2018-05-12T12:18:46.120Z,50.80
2018-05-12T12:21:13.585Z,50.10
2018-05-12T12:23:41.033Z,50.50
2018-05-12T12:26:09.264Z,48.90
2018-05-12T12:28:36.717Z,48.90
2018-05-12T12:31:04.181Z,47.70
2018-05-12T12:33:31.624Z,49.20
2018-05-12T12:35:59.876Z,47.40
2018-05-12T12:38:27.321Z,47.30
2018-05-12T12:40:54.777Z,49.60
2018-05-12T12:43:22.221Z,52.00
2018-05-12T12:45:50.436Z,46.70
2018-05-12T12:48:17.891Z,46.70
2018-05-12T12:50:45.340Z,46.20
2018-05-12T12:53:13.565Z,46.40
2018-05-12T12:55:41.010Z,46.40
2018-05-12T12:58:08.465Z,46.10
2018-05-12T13:00:36.679Z,42.40
2018-05-12T13:03:04.138Z,42.40
2018-05-12T13:05:31.591Z,45.40
2018-05-12T13:07:59.813Z,43.40
2018-05-12T13:10:27.256Z,43.30
2018-05-12T13:12:54.711Z,45.00
2018-05-12T13:15:22.917Z,46.00
2018-05-12T13:17:50.415Z,45.90
2018-05-12T13:20:17.861Z,45.10
2018-05-12T13:22:45.325Z,45.00
2018-05-12T13:25:12.768Z,43.30
2018-05-12T13:27:40.993Z,44.10
2018-05-12T13:30:08.456Z,44.00
2018-05-12T13:32:35.916Z,43.20
2018-05-12T13:35:03.373Z,43.40
2018-05-12T13:37:31.597Z,47.00
2018-05-12T13:39:59.040Z,47.00
2018-05-12T13:42:26.490Z,45.80
2018-05-12T13:44:54.701Z,45.80
2018-05-12T13:47:22.236Z,45.80
2018-05-12T13:49:49.673Z,47.30
2018-05-12T13:52:17.133Z,49.20
2018-05-12T13:54:44.662Z,49.50
2018-05-12T13:57:12.037Z,48.60
2018-05-12T13:59:39.505Z,48.10
2018-05-12T14:02:06.961Z,46.70
2018-05-12T14:04:35.175Z,44.40
2018-05-12T14:07:02.628Z,44.30
2018-05-12T14:09:30.080Z,43.90
2018-05-12T14:11:58.295Z,43.80
2018-05-12T14:14:25.772Z,43.80
2018-05-12T14:16:53.207Z,45.50
2018-05-12T14:19:21.422Z,44.50
2018-05-12T14:21:48.881Z,44.50
2018-05-12T14:24:16.342Z,43.70
2018-05-12T14:26:44.631Z,44.50
2018-05-12T14:29:12.825Z,43.70
2018-05-12T14:31:40.300Z,43.70
2018-05-12T14:34:08.495Z,44.90
2018-05-12T14:36:35.958Z,44.90
2018-05-12T14:39:03.460Z,46.60
2018-05-12T14:41:30.912Z,47.50
2018-05-12T14:43:58.360Z,47.00
2018-05-12T14:46:25.873Z,47.00
2018-05-12T14:48:53.320Z,47.00
2018-05-12T14:51:20.771Z,46.70
2018-05-12T14:53:48.257Z,48.00
2018-05-12T14:56:15.684Z,48.90
2018-05-12T14:58:43.995Z,48.30
2018-05-12T15:01:11.461Z,48.30
2018-05-12T15:03:38.919Z,47.70
2018-05-12T15:06:07.114Z,48.90
2018-05-12T15:08:34.595Z,48.90
2018-05-12T15:11:02.019Z,47.50
2018-05-12T15:13:30.237Z,47.90
2018-05-12T15:15:57.680Z,47.90
2018-05-12T15:18:25.990Z,49.70
2018-05-12T15:20:53.353Z,49.10
2018-05-12T15:23:20.936Z,48.00
2018-05-12T15:25:48.409Z,48.30
2018-05-12T15:28:15.885Z,48.90
2018-05-12T15:30:43.368Z,47.90
2018-05-12T15:33:10.806Z,48.80
2018-05-12T15:35:38.247Z,46.20
2018-05-12T15:38:06.462Z,48.90
2018-05-12T15:40:33.921Z,48.80
2018-05-12T15:43:02.141Z,48.60
2018-05-12T15:45:29.588Z,48.60
2018-05-12T15:47:57.039Z,49.80
2018-05-12T15:50:25.269Z,49.30
2018-05-12T15:52:52.733Z,49.30
2018-05-12T15:55:20.193Z,49.60
2018-05-12T15:57:47.636Z,51.00
2018-05-12T16:00:15.078Z,50.60
2018-05-12T16:02:42.545Z,49.10
2018-05-12T16:05:10.018Z,49.40
2018-05-12T16:07:37.465Z,50.20
2018-05-12T16:10:04.910Z,50.10
2018-05-12T16:12:32.396Z,51.50
2018-05-12T16:14:59.839Z,51.50
2018-05-12T16:17:27.297Z,50.40
2018-05-12T16:19:54.744Z,50.70
2018-05-12T16:22:23.107Z,50.80
2018-05-12T16:24:50.552Z,50.80
2018-05-12T16:27:18.011Z,51.80
2018-05-12T16:29:45.452Z,51.50
2018-05-12T16:32:12.915Z,52.80
2018-05-12T16:34:41.128Z,52.30
2018-05-12T16:37:08.596Z,52.20
2018-05-12T16:39:36.041Z,51.90
2018-05-12T16:42:04.277Z,52.90
2018-05-12T16:44:31.767Z,52.90
2018-05-12T16:46:59.177Z,52.90
2018-05-12T16:49:26.623Z,52.60
2018-05-12T16:51:54.854Z,53.40
2018-05-12T16:54:22.299Z,52.70
2018-05-12T16:56:49.766Z,53.60
2018-05-12T16:59:17.241Z,53.90
2018-05-12T17:01:44.660Z,53.90
2018-05-12T17:04:12.111Z,55.60
2018-05-12T17:06:39.560Z,55.50
2018-05-12T17:09:07.030Z,56.10
2018-05-12T17:11:34.484Z,56.60
2018-05-12T17:14:01.946Z,55.60
2018-05-12T17:16:30.153Z,56.60
2018-05-12T17:18:57.963Z,56.60
2018-05-12T17:21:26.925Z,58.70
2018-05-12T17:23:54.440Z,58.70
2018-05-12T17:26:21.884Z,57.00
2018-05-12T17:28:49.342Z,57.70
2018-05-12T17:31:16.784Z,57.40
2018-05-12T17:33:44.230Z,58.40
2018-05-12T17:36:12.629Z,58.80
2018-05-12T17:38:40.907Z,59.90
2018-05-12T17:41:08.349Z,59.80
2018-05-12T17:43:36.760Z,60.80
2018-05-12T17:46:04.217Z,61.70
2018-05-12T17:48:31.698Z,62.20
2018-05-12T17:50:59.133Z,61.30
2018-05-12T17:53:26.588Z,62.00
2018-05-12T17:55:54.033Z,62.20
2018-05-12T17:58:22.447Z,63.10
2018-05-12T18:00:49.895Z,63.10
2018-05-12T18:03:18.120Z,62.30
2018-05-12T18:05:45.564Z,62.30
2018-05-12T18:08:13.019Z,63.50
2018-05-12T18:10:41.228Z,62.60
2018-05-12T18:13:08.805Z,62.50
2018-05-12T18:15:36.258Z,63.70
2018-05-12T18:18:03.703Z,63.90
2018-05-12T18:20:31.907Z,62.90
2018-05-12T18:23:00.129Z,63.30
2018-05-12T18:25:27.808Z,63.30
2018-05-12T18:27:55.265Z,63.50
2018-05-12T18:30:22.710Z,63.10
2018-05-12T18:32:50.158Z,63.20
2018-05-12T18:35:29.871Z,63.80
2018-05-12T18:37:58.092Z,63.00
2018-05-12T18:40:25.553Z,62.80
2018-05-12T18:42:53.000Z,63.60
2018-05-12T18:45:21.217Z,64.60
2018-05-12T18:47:48.705Z,64.60
2018-05-12T18:50:16.151Z,64.30
2018-05-12T18:52:43.605Z,63.10
2018-05-12T18:55:11.817Z,63.10
2018-05-12T18:57:39.301Z,63.10
2018-05-12T19:00:06.735Z,63.40
2018-05-12T19:02:34.224Z,63.50
2018-05-12T19:05:01.668Z,63.20
2018-05-12T19:07:29.897Z,62.50
2018-05-12T19:09:57.344Z,62.50
2018-05-12T19:12:24.810Z,62.60
2018-05-12T19:14:52.251Z,63.50
2018-05-12T19:17:19.725Z,63.00
2018-05-12T19:19:47.969Z,63.10
2018-05-12T19:22:15.401Z,63.10
2018-05-12T19:24:42.861Z,63.10
2018-05-12T19:27:11.066Z,63.30
2018-05-12T19:29:38.537Z,63.30
2018-05-12T19:32:05.994Z,62.80
2018-05-12T19:34:33.455Z,63.70
2018-05-12T19:37:01.674Z,63.40
2018-05-12T19:39:29.126Z,63.40
2018-05-12T19:41:56.572Z,63.10
2018-05-12T19:44:24.792Z,63.60
2018-05-12T19:46:52.244Z,63.60
2018-05-12T19:49:19.693Z,63.80
2018-05-12T19:51:48.008Z,63.00
2018-05-12T19:54:15.473Z,63.00
2018-05-12T19:56:42.920Z,63.50
2018-05-12T19:59:11.146Z,63.80
2018-05-12T20:01:38.597Z,63.70
2018-05-12T20:04:06.065Z,63.10
2018-05-12T20:06:33.552Z,63.60
2018-05-12T20:09:01.015Z,64.10
2018-05-12T20:11:28.465Z,63.80
2018-05-12T20:13:55.946Z,63.50
2018-05-12T20:16:23.372Z,63.10
2018-05-12T20:18:50.819Z,63.80
2018-05-12T20:21:18.263Z,64.10
2018-05-12T20:23:45.866Z,63.70
2018-05-12T20:26:13.306Z,62.90
2018-05-12T20:28:40.760Z,63.50
2018-05-12T20:31:08.271Z,63.50
2018-05-12T20:33:36.437Z,63.40
2018-05-12T20:36:03.884Z,63.30
2018-05-12T20:38:31.335Z,64.10
2018-05-12T20:40:58.785Z,63.90
2018-05-12T20:43:26.999Z,65.50
2018-05-12T20:45:55.351Z,64.60
2018-05-12T20:48:22.808Z,64.60
2018-05-12T20:50:50.257Z,65.00
2018-05-12T20:53:17.725Z,64.70
2018-05-12T20:55:45.180Z,64.40
2018-05-12T20:58:12.641Z,64.50
2018-05-12T21:00:40.085Z,65.00
2018-05-12T21:03:08.347Z,64.00
2018-05-12T21:05:35.824Z,63.90
2018-05-12T21:08:03.285Z,64.70
2018-05-12T21:10:30.728Z,64.50
2018-05-12T21:12:58.178Z,65.20
2018-05-12T21:15:25.624Z,65.30
2018-05-12T21:17:53.101Z,64.80
2018-05-12T22:06:12.564Z,65.00
2018-05-12T22:08:40.004Z,65.30
2018-05-12T22:11:07.465Z,65.60
2018-05-12T22:13:34.908Z,65.50
2018-05-12T22:16:02.373Z,64.70
2018-05-12T22:18:29.818Z,65.00
2018-05-12T22:20:57.280Z,65.70
2018-05-12T22:23:24.720Z,63.50
2018-05-12T22:25:52.175Z,62.30
2018-05-12T22:28:19.629Z,62.40
2018-05-12T22:30:47.093Z,62.40
2018-05-12T22:33:14.548Z,62.40
2018-05-12T22:35:42.768Z,63.40
2018-05-12T22:38:10.229Z,63.30
2018-05-12T22:40:37.691Z,62.50
2018-05-12T22:43:05.130Z,63.70
2018-05-12T22:45:33.358Z,63.60
2018-05-12T22:48:00.856Z,63.50
2018-05-12T22:50:28.295Z,63.80
2018-05-12T22:52:55.744Z,61.80
2018-05-12T22:55:23.960Z,64.00
2018-05-12T22:57:51.425Z,63.90
2018-05-12T23:00:19.599Z,63.80
2018-05-12T23:02:47.066Z,63.20
2018-05-12T23:05:14.525Z,63.10
2018-05-12T23:07:41.983Z,63.40
2018-05-12T23:10:10.275Z,63.80
2018-05-12T23:12:37.668Z,63.80
2018-05-12T23:15:05.127Z,64.20
2018-05-12T23:17:32.584Z,64.30
2018-05-12T23:20:00.032Z,64.30
2018-05-12T23:22:27.512Z,64.30
2018-05-12T23:24:54.958Z,64.40
2018-05-12T23:27:22.407Z,65.50
2018-05-12T23:29:49.856Z,65.20
2018-05-12T23:32:17.319Z,65.60
2018-05-12T23:34:44.767Z,65.80
2018-05-12T23:37:12.211Z,65.70
2018-05-12T23:39:39.663Z,65.50
2018-05-12T23:42:07.885Z,65.80
2018-05-12T23:44:36.107Z,65.40
2018-05-12T23:47:03.553Z,65.40
2018-05-12T23:49:31.012Z,65.50
2018-05-12T23:51:58.469Z,65.60
2018-05-12T23:54:26.700Z,66.50
2018-05-12T23:56:54.157Z,66.50
2018-05-12T23:59:21.615Z,66.90
